createdAt,value
2022-09-23T00:01:19.772Z,21.40
2022-09-23T00:03:47.568Z,21.40
2022-09-23T00:06:20.371Z,21.40
2022-09-23T00:08:49.826Z,21.40
2022-09-23T00:11:22.809Z,21.40
2022-09-23T00:13:53.859Z,21.30
2022-09-23T00:16:28.621Z,21.30
2022-09-23T00:18:55.917Z,21.30
2022-09-23T00:21:23.716Z,21.30
2022-09-23T00:23:51.875Z,21.30
2022-09-23T00:26:21.288Z,21.30
2022-09-23T00:28:49.381Z,21.30
2022-09-23T00:31:23.720Z,21.20
2022-09-23T00:33:56.850Z,21.20
2022-09-23T00:36:25.340Z,21.10
2022-09-23T00:38:53.519Z,21.10
2022-09-23T00:41:21.500Z,21.10
2022-09-23T00:43:52.957Z,21.10
2022-09-23T00:46:23.180Z,21.10
2022-09-23T00:48:56.087Z,21.00
2022-09-23T00:51:27.117Z,21.00
2022-09-23T00:53:54.450Z,21.00
2022-09-23T00:56:24.508Z,21.00
2022-09-23T00:58:52.724Z,21.00
2022-09-23T01:01:21.275Z,21.00
2022-09-23T01:03:50.320Z,21.00
2022-09-23T01:06:17.970Z,21.00
2022-09-23T01:08:47.311Z,20.90
2022-09-23T01:11:42.344Z,20.90
2022-09-23T01:14:35.413Z,20.90
2022-09-23T01:17:21.842Z,20.80
2022-09-23T01:20:04.153Z,20.80
2022-09-23T01:22:37.150Z,20.80
2022-09-23T01:25:36.535Z,20.80
2022-09-23T01:28:33.436Z,20.80
2022-09-23T01:31:13.800Z,20.90
2022-09-23T01:34:15.209Z,20.90
2022-09-23T01:37:21.000Z,20.90
2022-09-23T01:40:20.984Z,20.90
2022-09-23T01:42:52.307Z,21.00
2022-09-23T01:45:35.721Z,20.90
2022-09-23T01:48:21.033Z,20.90
2022-09-23T01:51:14.212Z,20.90
2022-09-23T01:54:07.382Z,20.90
2022-09-23T01:56:58.924Z,20.80
2022-09-23T01:59:43.700Z,20.80
2022-09-23T02:02:23.736Z,20.80
2022-09-23T02:05:04.345Z,20.80
2022-09-23T02:08:01.666Z,20.80
2022-09-23T02:10:42.241Z,20.80
2022-09-23T02:13:20.692Z,20.80
2022-09-23T02:15:52.022Z,20.80
2022-09-23T02:18:25.496Z,20.70
2022-09-23T02:20:59.153Z,20.70
2022-09-23T02:23:34.095Z,20.70
2022-09-23T02:26:12.245Z,20.60
2022-09-23T02:29:02.482Z,20.70
2022-09-23T02:32:01.703Z,20.80
2022-09-23T02:34:42.704Z,20.80
2022-09-23T02:37:24.789Z,20.70
2022-09-23T02:40:01.975Z,20.70
2022-09-23T02:42:42.106Z,20.70
2022-09-23T02:45:09.647Z,20.80
2022-09-23T02:47:40.791Z,20.70
2022-09-23T02:50:09.587Z,20.70
2022-09-23T02:52:38.822Z,20.60
2022-09-23T02:55:09.221Z,20.60
2022-09-23T02:57:36.481Z,20.60
2022-09-23T03:00:05.298Z,20.50
2022-09-23T03:03:13.063Z,20.50
2022-09-23T03:05:50.500Z,20.50
2022-09-23T03:08:37.303Z,20.50
2022-09-23T03:11:11.312Z,20.40
2022-09-23T03:14:00.013Z,20.40
2022-09-23T03:16:50.487Z,20.30
2022-09-23T03:19:26.653Z,20.30
2022-09-23T03:22:08.658Z,20.30
2022-09-23T03:24:38.332Z,20.20
2022-09-23T03:27:13.932Z,20.20
2022-09-23T03:29:49.035Z,20.20
2022-09-23T03:32:20.442Z,20.20
2022-09-23T03:34:52.391Z,20.20
2022-09-23T03:37:54.620Z,20.20
2022-09-23T03:40:33.672Z,20.20
2022-09-23T03:43:02.747Z,20.20
2022-09-23T03:45:34.158Z,20.10
2022-09-23T03:48:01.921Z,20.20
2022-09-23T03:50:29.655Z,20.20
2022-09-23T03:52:56.964Z,20.30
2022-09-23T03:55:24.138Z,20.40
2022-09-23T03:57:51.543Z,20.40
2022-09-23T04:00:18.815Z,20.40
2022-09-23T04:02:46.037Z,20.40
2022-09-23T04:05:13.869Z,20.40
2022-09-23T04:07:41.504Z,20.30
2022-09-23T04:10:10.123Z,20.40
2022-09-23T04:12:37.912Z,20.40
2022-09-23T04:15:05.824Z,20.30
2022-09-23T04:17:32.983Z,20.30
2022-09-23T04:20:00.225Z,20.30
2022-09-23T04:22:27.341Z,20.30
2022-09-23T04:24:54.914Z,20.30
2022-09-23T04:27:22.254Z,20.20
2022-09-23T04:29:49.392Z,20.10
2022-09-23T04:32:16.538Z,20.00
2022-09-23T04:34:43.808Z,20.00
2022-09-23T04:37:10.892Z,19.90
2022-09-23T04:39:38.199Z,19.80
2022-09-23T04:42:05.478Z,19.80
2022-09-23T04:44:33.180Z,19.80
2022-09-23T04:47:00.362Z,19.80
2022-09-23T04:49:27.557Z,19.80
2022-09-23T04:51:55.312Z,19.80
2022-09-23T04:54:22.492Z,19.80
2022-09-23T04:56:49.612Z,19.80
2022-09-23T04:59:16.859Z,19.80
2022-09-23T05:01:44.455Z,19.80
2022-09-23T05:04:14.047Z,19.80
2022-09-23T05:06:44.082Z,19.90
2022-09-23T05:09:17.292Z,20.00
2022-09-23T05:11:45.686Z,20.00
2022-09-23T05:14:13.241Z,20.00
2022-09-23T05:16:40.924Z,20.10
2022-09-23T05:19:08.317Z,20.20
2022-09-23T05:21:36.630Z,20.30
2022-09-23T05:24:04.032Z,20.30
2022-09-23T05:26:32.355Z,20.30
2022-09-23T05:29:00.596Z,20.10
2022-09-23T05:31:29.689Z,19.70
2022-09-23T05:33:59.458Z,19.10
2022-09-23T05:36:27.944Z,18.60
2022-09-23T05:38:57.499Z,18.40
2022-09-23T05:41:25.920Z,18.20
2022-09-23T05:43:57.173Z,18.10
2022-09-23T05:46:29.730Z,18.00
2022-09-23T05:49:02.142Z,18.00
2022-09-23T05:51:31.350Z,17.90
2022-09-23T05:53:59.942Z,17.90
2022-09-23T05:56:30.539Z,17.80
2022-09-23T05:59:00.419Z,17.70
2022-09-23T06:01:32.406Z,17.70
2022-09-23T06:04:01.288Z,17.60
2022-09-23T06:06:37.687Z,17.60
2022-09-23T06:09:06.927Z,17.60
2022-09-23T06:11:36.397Z,17.50
2022-09-23T06:14:04.569Z,17.40
2022-09-23T06:16:36.757Z,17.30
2022-09-23T06:19:06.701Z,17.20
2022-09-23T06:21:36.998Z,17.20
2022-09-23T06:24:05.412Z,17.20
2022-09-23T06:26:35.376Z,17.20
2022-09-23T06:29:08.367Z,17.20
2022-09-23T06:31:35.959Z,17.20
2022-09-23T06:34:16.563Z,17.40
2022-09-23T06:36:46.207Z,17.70
2022-09-23T06:39:17.080Z,17.90
2022-09-23T06:41:45.439Z,18.20
2022-09-23T06:44:14.316Z,18.50
2022-09-23T06:46:41.970Z,18.80
2022-09-23T06:49:09.258Z,19.00
2022-09-23T06:51:36.860Z,19.30
2022-09-23T06:54:04.228Z,19.50
2022-09-23T06:56:34.910Z,19.60
2022-09-23T06:59:07.325Z,19.80
2022-09-23T07:01:34.991Z,20.00
2022-09-23T07:04:02.423Z,20.10
2022-09-23T07:06:29.539Z,20.10
2022-09-23T07:08:56.858Z,20.30
2022-09-23T07:11:24.055Z,20.40
2022-09-23T07:13:51.377Z,20.60
2022-09-23T07:16:18.848Z,20.70
2022-09-23T07:18:46.263Z,20.90
2022-09-23T07:21:16.243Z,21.10
2022-09-23T07:23:44.574Z,21.20
2022-09-23T07:26:12.270Z,21.20
2022-09-23T07:28:40.256Z,21.20
2022-09-23T07:31:15.182Z,21.30
2022-09-23T07:33:44.394Z,21.30
2022-09-23T07:36:14.469Z,21.30
2022-09-23T07:38:45.401Z,21.50
2022-09-23T07:41:17.999Z,21.60
2022-09-23T07:43:46.250Z,21.70
2022-09-23T07:46:17.633Z,21.80
2022-09-23T07:48:46.691Z,22.00
2022-09-23T07:51:18.301Z,22.30
2022-09-23T07:53:48.865Z,22.60
2022-09-23T07:56:17.443Z,22.60
2022-09-23T07:58:44.902Z,22.70
2022-09-23T08:01:13.497Z,22.80
2022-09-23T08:03:40.950Z,22.80
2022-09-23T08:06:10.498Z,22.90
2022-09-23T08:08:40.513Z,23.10
2022-09-23T08:11:10.454Z,23.00
2022-09-23T08:13:38.257Z,22.80
2022-09-23T08:16:05.791Z,22.80
2022-09-23T08:18:34.060Z,22.90
2022-09-23T08:21:01.489Z,23.00
2022-09-23T08:23:33.528Z,23.00
2022-09-23T08:26:03.144Z,23.00
2022-09-23T08:28:32.045Z,23.00
2022-09-23T08:30:59.740Z,23.00
2022-09-23T08:33:27.133Z,23.10
2022-09-23T08:36:00.382Z,23.10
2022-09-23T08:38:28.360Z,23.30
2022-09-23T08:41:20.593Z,23.40
2022-09-23T08:43:58.559Z,23.70
2022-09-23T08:46:31.923Z,23.80
2022-09-23T08:49:01.181Z,24.00
2022-09-23T08:51:41.384Z,24.10
2022-09-23T08:54:13.205Z,24.00
2022-09-23T08:56:42.844Z,23.90
2022-09-23T08:59:26.965Z,23.80
2022-09-23T09:02:02.595Z,23.60
2022-09-23T09:04:35.939Z,23.80
2022-09-23T09:07:35.292Z,23.90
2022-09-23T09:10:06.839Z,23.60
2022-09-23T09:13:15.882Z,23.60
2022-09-23T09:15:56.725Z,23.70
2022-09-23T09:18:25.875Z,23.90
2022-09-23T09:21:14.895Z,23.70
2022-09-23T09:23:52.429Z,23.70
2022-09-23T09:26:35.567Z,23.80
2022-09-23T09:29:35.358Z,23.80
2022-09-23T09:32:24.007Z,23.90
2022-09-23T09:34:57.192Z,24.00
2022-09-23T09:37:47.842Z,24.10
2022-09-23T09:40:17.342Z,24.10
2022-09-23T09:42:50.141Z,24.20
2022-09-23T09:45:26.750Z,24.30
2022-09-23T09:48:23.915Z,24.20
2022-09-23T09:50:54.168Z,24.20
2022-09-23T09:53:25.723Z,24.20
2022-09-23T09:56:14.947Z,24.40
2022-09-23T09:58:59.140Z,24.50
2022-09-23T10:01:30.206Z,24.50
2022-09-23T10:04:19.741Z,24.50
2022-09-23T10:07:06.928Z,24.60
2022-09-23T10:09:37.602Z,24.80
2022-09-23T10:12:15.644Z,25.00
2022-09-23T10:14:43.436Z,24.90
2022-09-23T10:17:20.956Z,24.90
2022-09-23T10:19:57.319Z,25.00
2022-09-23T10:22:33.897Z,24.90
2022-09-23T10:25:07.660Z,24.70
2022-09-23T10:27:36.529Z,24.80
2022-09-23T10:30:24.812Z,24.90
2022-09-23T10:32:55.088Z,24.90
2022-09-23T10:35:24.721Z,25.00
2022-09-23T10:37:57.158Z,25.10
2022-09-23T10:40:51.091Z,24.90
2022-09-23T10:43:43.010Z,24.80
2022-09-23T10:46:39.386Z,25.00
2022-09-23T10:49:31.711Z,25.20
2022-09-23T10:52:11.393Z,25.40
2022-09-23T10:55:23.534Z,25.60
2022-09-23T10:57:57.932Z,26.20
2022-09-23T11:00:46.436Z,26.70
2022-09-23T11:03:28.981Z,27.10
2022-09-23T11:06:26.661Z,27.00
2022-09-23T11:09:14.930Z,27.40
2022-09-23T11:12:03.823Z,27.90
2022-09-23T11:14:42.151Z,27.80
2022-09-23T11:17:35.817Z,28.10
2022-09-23T11:20:41.504Z,28.50
2022-09-23T11:23:28.613Z,29.00
2022-09-23T11:26:41.708Z,29.20
2022-09-23T11:29:31.435Z,29.10
2022-09-23T11:32:20.915Z,29.70
2022-09-23T11:35:02.762Z,30.10
2022-09-23T11:37:37.673Z,30.10
2022-09-23T11:40:24.333Z,29.90
2022-09-23T11:42:58.341Z,29.40
2022-09-23T11:45:34.943Z,29.60
2022-09-23T11:48:19.114Z,30.00
2022-09-23T11:50:58.888Z,30.40
2022-09-23T11:53:42.882Z,30.40
2022-09-23T11:56:46.863Z,30.10
2022-09-23T11:59:40.163Z,30.30
2022-09-23T12:02:33.821Z,31.00
2022-09-23T12:05:16.756Z,31.80
2022-09-23T12:07:56.954Z,31.10
2022-09-23T12:11:06.234Z,30.20
2022-09-23T12:13:45.163Z,29.70
2022-09-23T12:16:49.501Z,29.80
2022-09-23T12:20:11.192Z,29.90
2022-09-23T12:23:20.648Z,30.00
2022-09-23T12:26:02.877Z,29.20
2022-09-23T12:28:41.857Z,29.30
2022-09-23T12:31:16.884Z,29.20
2022-09-23T12:33:54.882Z,29.60
2022-09-23T12:36:32.830Z,29.50
2022-09-23T12:39:18.047Z,30.20
2022-09-23T12:41:50.815Z,29.70
2022-09-23T12:44:43.009Z,28.90
2022-09-23T12:47:25.210Z,28.30
2022-09-23T12:50:01.091Z,27.90
2022-09-23T12:52:33.609Z,27.40
2022-09-23T12:55:24.618Z,27.80
2022-09-23T12:57:51.973Z,28.10
2022-09-23T13:00:29.823Z,28.40
2022-09-23T13:03:21.085Z,28.70
2022-09-23T13:06:22.834Z,28.70
2022-09-23T13:08:50.436Z,28.50
2022-09-23T13:11:29.741Z,28.50
2022-09-23T13:14:04.311Z,28.10
2022-09-23T13:19:28.020Z,27.00
2022-09-23T13:22:09.786Z,26.50
2022-09-23T13:24:49.522Z,25.90
2022-09-23T13:27:38.503Z,25.60
2022-09-23T13:30:14.052Z,25.50
2022-09-23T13:33:22.379Z,26.00
2022-09-23T13:35:51.665Z,26.80
2022-09-23T13:38:26.485Z,26.70
2022-09-23T13:41:10.856Z,26.00
2022-09-23T13:43:43.277Z,25.90
2022-09-23T13:46:14.569Z,25.80
2022-09-23T13:48:45.501Z,25.30
2022-09-23T13:51:21.959Z,25.00
2022-09-23T13:53:57.996Z,24.70
2022-09-23T13:56:28.242Z,24.70
2022-09-23T13:59:12.949Z,24.60
2022-09-23T14:01:40.405Z,24.50
2022-09-23T14:04:26.301Z,24.40
2022-09-23T14:06:54.797Z,24.40
2022-09-23T14:09:28.189Z,24.50
2022-09-23T14:11:58.001Z,24.60
2022-09-23T14:14:26.508Z,24.60
2022-09-23T14:17:01.415Z,24.60
2022-09-23T14:19:28.789Z,24.50
2022-09-23T14:21:57.011Z,24.60
2022-09-23T14:24:34.325Z,24.60
2022-09-23T14:27:18.305Z,24.50
2022-09-23T14:29:48.214Z,24.40
2022-09-23T14:32:26.282Z,24.30
2022-09-23T14:35:08.325Z,24.20
2022-09-23T14:37:57.462Z,24.10
2022-09-23T14:40:42.422Z,24.00
2022-09-23T14:43:28.484Z,24.00
2022-09-23T14:45:59.590Z,23.90
2022-09-23T14:48:35.784Z,23.80
2022-09-23T14:51:10.948Z,23.70
2022-09-23T14:53:49.273Z,23.50
2022-09-23T14:56:22.814Z,23.40
2022-09-23T14:58:57.778Z,23.50
2022-09-23T15:01:41.845Z,23.60
2022-09-23T15:04:16.568Z,23.60
2022-09-23T15:06:54.885Z,23.60
2022-09-23T15:09:33.840Z,23.70
2022-09-23T15:12:05.706Z,23.80
2022-09-23T15:14:39.418Z,23.80
2022-09-23T15:17:38.822Z,23.70
2022-09-23T15:20:20.196Z,23.50
2022-09-23T15:22:50.382Z,23.40
2022-09-23T15:25:36.190Z,23.40
2022-09-23T15:28:11.899Z,23.40
2022-09-23T15:33:32.944Z,23.40
2022-09-23T15:36:00.489Z,23.50
2022-09-23T15:38:27.981Z,23.50
2022-09-23T15:40:55.955Z,23.40
2022-09-23T15:43:26.810Z,23.40
2022-09-23T15:46:06.979Z,23.30
2022-09-23T15:48:40.537Z,23.20
2022-09-23T15:51:10.038Z,23.20
2022-09-23T15:53:40.168Z,23.10
2022-09-23T15:56:07.425Z,23.00
2022-09-23T15:58:34.617Z,23.00
2022-09-23T16:01:02.452Z,23.00
2022-09-23T16:03:29.658Z,22.90
2022-09-23T16:06:02.592Z,22.90
2022-09-23T16:08:32.461Z,22.90
2022-09-23T16:10:59.752Z,22.80
2022-09-23T16:13:26.952Z,22.80
2022-09-23T16:15:54.233Z,22.80
2022-09-23T16:18:21.425Z,22.80
2022-09-23T16:20:51.488Z,22.70
2022-09-23T16:23:37.322Z,22.70
2022-09-23T16:26:08.940Z,22.60
2022-09-23T16:28:36.282Z,22.50
2022-09-23T16:31:03.583Z,22.50
2022-09-23T16:33:30.799Z,22.40
2022-09-23T16:36:00.929Z,22.40
2022-09-23T16:38:29.157Z,22.30
2022-09-23T16:41:00.755Z,22.30
2022-09-23T16:43:35.189Z,22.30
2022-09-23T16:46:02.445Z,22.20
2022-09-23T16:48:29.673Z,22.20
2022-09-23T16:50:57.280Z,22.10
2022-09-23T16:53:26.614Z,22.10
2022-09-23T16:55:54.221Z,22.10
2022-09-23T16:58:21.504Z,22.00
2022-09-23T17:01:08.311Z,22.00
2022-09-23T17:03:42.879Z,22.00
2022-09-23T17:06:14.484Z,21.90
2022-09-23T17:08:42.771Z,21.90
2022-09-23T17:11:11.013Z,21.80
2022-09-23T17:13:41.149Z,21.80
2022-09-23T17:16:08.987Z,21.70
2022-09-23T17:18:36.164Z,21.60
2022-09-23T17:21:06.655Z,21.60
2022-09-23T17:23:35.763Z,21.60
2022-09-23T17:26:05.594Z,21.60
2022-09-23T17:28:32.992Z,21.60
2022-09-23T17:31:02.751Z,21.60
2022-09-23T17:33:32.067Z,21.60
2022-09-23T17:36:01.696Z,21.50
2022-09-23T17:38:29.741Z,21.50
2022-09-23T17:40:59.612Z,21.50
2022-09-23T17:43:32.596Z,21.50
2022-09-23T17:46:06.726Z,21.50
2022-09-23T17:48:35.932Z,21.50
2022-09-23T17:51:06.401Z,21.50
2022-09-23T17:53:37.109Z,21.50
2022-09-23T17:56:25.559Z,21.50
2022-09-23T17:58:53.713Z,21.50
2022-09-23T18:01:23.945Z,21.50
2022-09-23T18:04:00.216Z,21.50
2022-09-23T18:06:31.861Z,21.50
2022-09-23T18:09:06.835Z,21.60
2022-09-23T18:11:37.204Z,21.60
2022-09-23T18:14:07.558Z,21.60
2022-09-23T18:16:37.034Z,21.70
2022-09-23T18:19:06.006Z,21.70
2022-09-23T18:21:35.632Z,21.70
2022-09-23T18:24:28.185Z,21.70
2022-09-23T18:26:50.882Z,21.70
2022-09-23T18:29:18.632Z,21.70
2022-09-23T18:31:47.475Z,21.70
2022-09-23T18:34:18.708Z,21.70
2022-09-23T18:36:46.132Z,21.60
2022-09-23T18:39:13.367Z,21.60
2022-09-23T18:41:41.358Z,21.60
2022-09-23T18:44:08.997Z,21.60
2022-09-23T18:46:36.626Z,21.50
2022-09-23T18:49:22.448Z,21.50
2022-09-23T18:51:57.529Z,21.40
2022-09-23T18:54:27.752Z,21.30
2022-09-23T18:56:56.121Z,21.30
2022-09-23T18:59:26.341Z,21.20
2022-09-23T19:01:56.637Z,21.10
2022-09-23T19:04:25.620Z,21.10
2022-09-23T19:06:54.865Z,21.10
2022-09-23T19:09:22.115Z,21.10
2022-09-23T19:11:53.555Z,21.00
2022-09-23T19:14:20.908Z,21.00
2022-09-23T19:16:51.098Z,20.90
2022-09-23T19:19:18.549Z,20.90
2022-09-23T19:21:45.750Z,20.80
2022-09-23T19:24:16.071Z,20.80
2022-09-23T19:26:44.326Z,20.70
2022-09-23T19:29:19.676Z,20.70
2022-09-23T19:31:47.639Z,20.60
2022-09-23T19:34:22.852Z,20.60
2022-09-23T19:36:50.244Z,20.50
2022-09-23T19:39:30.665Z,20.50
2022-09-23T19:41:59.142Z,20.40
2022-09-23T19:44:27.094Z,20.40
2022-09-23T19:46:57.085Z,20.40
2022-09-23T19:49:25.651Z,20.30
2022-09-23T19:51:55.746Z,20.30
2022-09-23T19:54:26.375Z,20.30
2022-09-23T19:56:53.660Z,20.30
2022-09-23T19:59:20.981Z,20.30
2022-09-23T20:01:48.780Z,20.30
2022-09-23T20:04:16.956Z,20.30
2022-09-23T20:06:45.991Z,20.30
2022-09-23T20:09:13.440Z,20.30
2022-09-23T20:11:43.134Z,20.20
2022-09-23T20:14:10.899Z,20.20
2022-09-23T20:16:38.204Z,20.20
2022-09-23T20:19:05.947Z,20.20
2022-09-23T20:21:34.388Z,20.20
2022-09-23T20:24:02.274Z,20.20
2022-09-23T20:26:47.775Z,20.20
2022-09-23T20:29:15.315Z,20.10
2022-09-23T20:31:42.776Z,20.20
2022-09-23T20:34:10.815Z,20.20
2022-09-23T20:36:39.659Z,20.20
2022-09-23T20:39:07.299Z,20.20
2022-09-23T20:41:38.190Z,20.10
2022-09-23T20:44:11.842Z,20.10
2022-09-23T20:46:39.268Z,20.10
2022-09-23T20:49:08.884Z,20.00
2022-09-23T20:51:37.221Z,20.00
2022-09-23T20:54:05.160Z,20.00
2022-09-23T20:56:32.422Z,20.00
2022-09-23T20:59:01.433Z,20.00
2022-09-23T21:01:29.320Z,19.90
2022-09-23T21:03:56.529Z,19.90
2022-09-23T21:06:25.229Z,19.90
2022-09-23T21:08:54.830Z,19.90
2022-09-23T21:11:22.662Z,19.90
2022-09-23T21:13:51.504Z,19.80
2022-09-23T21:16:21.504Z,19.80
2022-09-23T21:18:50.618Z,19.80
2022-09-23T21:21:19.832Z,19.80
2022-09-23T21:23:47.897Z,19.70
2022-09-23T21:26:24.087Z,19.70
2022-09-23T21:28:54.542Z,19.60
2022-09-23T21:31:41.446Z,19.60
2022-09-23T21:34:11.294Z,19.70
2022-09-23T21:36:44.716Z,19.60
2022-09-23T21:39:12.733Z,19.60
2022-09-23T21:41:40.257Z,19.60
2022-09-23T21:44:08.594Z,19.50
2022-09-23T21:46:36.811Z,19.60
2022-09-23T21:49:04.513Z,19.50
2022-09-23T21:51:41.300Z,19.50
2022-09-23T21:54:14.387Z,19.50
2022-09-23T21:56:42.610Z,19.50
2022-09-23T21:59:10.541Z,19.40
2022-09-23T22:01:41.516Z,19.40
2022-09-23T22:04:14.905Z,19.40
2022-09-23T22:06:42.409Z,19.40
2022-09-23T22:09:13.634Z,19.40
2022-09-23T22:11:59.903Z,19.30
2022-09-23T22:14:27.784Z,19.30
2022-09-23T22:16:59.758Z,19.30
2022-09-23T22:19:44.288Z,19.30
2022-09-23T22:22:15.961Z,19.30
2022-09-23T22:24:44.801Z,19.30
2022-09-23T22:27:14.450Z,19.20
2022-09-23T22:30:00.360Z,19.20
2022-09-23T22:32:43.644Z,19.20
2022-09-23T22:35:18.920Z,19.20
2022-09-23T22:37:46.343Z,19.20
2022-09-23T22:40:15.665Z,19.10
2022-09-23T22:42:43.445Z,19.10
2022-09-23T22:45:12.231Z,19.10
2022-09-23T22:47:41.431Z,19.10
2022-09-23T22:50:09.919Z,19.10
2022-09-23T22:52:38.003Z,19.10
2022-09-23T22:55:08.163Z,19.00
2022-09-23T22:57:36.264Z,19.00
2022-09-23T23:00:08.920Z,19.00
2022-09-23T23:02:36.884Z,19.00
2022-09-23T23:05:04.322Z,19.00
2022-09-23T23:07:32.185Z,19.00
2022-09-23T23:09:59.398Z,19.00
2022-09-23T23:12:26.641Z,18.90
2022-09-23T23:14:53.873Z,18.90
2022-09-23T23:17:21.985Z,18.90
2022-09-23T23:19:50.705Z,18.90
2022-09-23T23:22:18.714Z,18.90
2022-09-23T23:24:46.058Z,18.90
2022-09-23T23:27:13.300Z,18.90
2022-09-23T23:29:40.444Z,18.90
2022-09-23T23:32:09.849Z,18.90
2022-09-23T23:34:37.052Z,18.90
2022-09-23T23:37:04.235Z,18.90
2022-09-23T23:39:31.492Z,18.90
2022-09-23T23:41:58.670Z,18.90
2022-09-23T23:44:27.003Z,18.80
2022-09-23T23:46:55.311Z,18.80
2022-09-23T23:49:22.692Z,18.80
2022-09-23T23:51:50.368Z,18.80
2022-09-23T23:54:17.592Z,18.70
2022-09-23T23:56:44.835Z,18.70
2022-09-23T23:59:12.289Z,18.70
